createdAt,value
2019-04-07T00:00:59.766Z,10.40
2019-04-07T00:03:28.766Z,10.40
2019-04-07T00:05:57.512Z,10.30
2019-04-07T00:08:26.165Z,10.30
2019-04-07T00:10:54.664Z,10.30
2019-04-07T00:13:23.245Z,10.20
2019-04-07T00:15:51.801Z,10.20
2019-04-07T00:18:20.367Z,10.20
2019-04-07T00:20:48.768Z,10.20
2019-04-07T00:23:17.606Z,10.10
2019-04-07T00:25:46.726Z,10.10
2019-04-07T00:28:15.185Z,10.00
2019-04-07T00:30:43.592Z,10.00
2019-04-07T00:33:12.001Z,10.00
2019-04-07T00:35:40.456Z,10.00
2019-04-07T00:38:09.536Z,10.00
2019-04-07T00:40:38.178Z,9.90
2019-04-07T00:43:06.761Z,9.90
2019-04-07T00:45:35.391Z,9.90
2019-04-07T00:48:03.833Z,9.90
2019-04-07T00:50:32.673Z,9.90
2019-04-07T00:53:01.710Z,9.80
2019-04-07T00:55:30.136Z,9.70
2019-04-07T00:57:58.563Z,9.70
2019-04-07T01:00:29.084Z,9.60
2019-04-07T01:02:57.572Z,9.60
2019-04-07T01:05:35.681Z,9.60
2019-04-07T01:07:56.402Z,9.60
2019-04-07T01:10:24.816Z,9.50
2019-04-07T01:12:53.355Z,9.50
2019-04-07T01:15:23.013Z,9.40
2019-04-07T01:17:51.524Z,9.30
2019-04-07T01:20:20.649Z,9.40
2019-04-07T01:22:49.501Z,9.30
2019-04-07T01:25:18.501Z,9.30
2019-04-07T01:27:46.948Z,9.20
2019-04-07T01:30:16.066Z,9.20
2019-04-07T01:32:44.606Z,9.20
2019-04-07T01:35:13.394Z,9.20
2019-04-07T01:37:41.857Z,9.20
2019-04-07T01:40:10.989Z,9.10
2019-04-07T01:42:41.056Z,9.00
2019-04-07T01:45:28.010Z,9.00
2019-04-07T01:48:04.884Z,9.00
2019-04-07T01:50:53.930Z,9.00
2019-04-07T01:53:33.379Z,9.00
2019-04-07T01:56:07.584Z,8.90
2019-04-07T01:58:43.642Z,8.80
2019-04-07T02:01:16.123Z,8.80
2019-04-07T02:04:01.728Z,8.70
2019-04-07T02:06:48.688Z,8.70
2019-04-07T02:09:22.441Z,8.60
2019-04-07T02:11:53.002Z,8.60
2019-04-07T02:14:39.316Z,8.60
2019-04-07T02:17:09.780Z,8.50
2019-04-07T02:19:40.457Z,8.60
2019-04-07T02:22:16.529Z,8.60
2019-04-07T02:24:49.851Z,8.50
2019-04-07T02:27:26.183Z,8.50
2019-04-07T02:30:05.905Z,8.50
2019-04-07T02:32:39.038Z,8.50
2019-04-07T02:35:25.915Z,8.40
2019-04-07T02:37:58.748Z,8.40
2019-04-07T02:40:28.773Z,8.40
2019-04-07T02:43:05.253Z,8.40
2019-04-07T02:45:50.788Z,8.30
2019-04-07T02:48:20.949Z,8.30
2019-04-07T02:51:01.214Z,8.30
2019-04-07T02:53:31.374Z,8.40
2019-04-07T02:56:03.897Z,8.30
2019-04-07T02:58:37.955Z,8.30
2019-04-07T03:01:26.393Z,8.30
2019-04-07T03:04:03.832Z,8.30
2019-04-07T03:06:48.361Z,8.30
2019-04-07T03:09:18.732Z,8.20
2019-04-07T03:12:07.309Z,8.20
2019-04-07T03:14:49.551Z,8.20
2019-04-07T03:17:23.279Z,8.20
2019-04-07T03:19:54.097Z,8.20
2019-04-07T03:22:24.414Z,8.20
2019-04-07T03:25:09.911Z,8.20
2019-04-07T03:27:57.306Z,8.20
2019-04-07T03:30:35.324Z,8.20
2019-04-07T03:33:16.470Z,8.20
2019-04-07T03:35:56.972Z,8.10
2019-04-07T03:38:33.329Z,8.00
2019-04-07T03:41:07.280Z,8.00
2019-04-07T03:43:46.431Z,8.00
2019-04-07T03:46:20.289Z,8.00
2019-04-07T03:48:53.684Z,8.00
2019-04-07T03:51:30.236Z,8.10
2019-04-07T03:54:07.198Z,8.10
2019-04-07T03:56:47.613Z,8.10
2019-04-07T03:59:35.178Z,8.00
2019-04-07T04:02:20.544Z,8.00
2019-04-07T04:05:03.128Z,8.00
2019-04-07T04:07:36.587Z,8.00
2019-04-07T04:10:08.441Z,8.00
2019-04-07T04:12:41.784Z,7.90
2019-04-07T04:15:12.695Z,7.90
2019-04-07T04:17:41.376Z,7.80
2019-04-07T04:20:10.579Z,7.80
2019-04-07T04:22:39.704Z,7.80
2019-04-07T04:25:08.835Z,7.70
2019-04-07T04:27:38.749Z,7.70
2019-04-07T04:30:10.817Z,7.70
2019-04-07T04:32:39.977Z,7.70
2019-04-07T04:35:08.788Z,7.60
2019-04-07T04:37:45.068Z,7.60
2019-04-07T04:40:09.237Z,7.50
2019-04-07T04:42:37.867Z,7.50
2019-04-07T04:45:08.362Z,7.50
2019-04-07T04:47:37.631Z,7.50
2019-04-07T04:50:08.192Z,7.40
2019-04-07T04:52:37.009Z,7.40
2019-04-07T04:55:07.055Z,7.30
2019-04-07T04:57:35.675Z,7.30
2019-04-07T05:00:06.325Z,7.40
2019-04-07T05:02:34.841Z,7.30
2019-04-07T05:05:07.541Z,7.30
2019-04-07T05:07:47.920Z,7.30
2019-04-07T05:10:05.786Z,7.20
2019-04-07T05:12:34.304Z,7.20
2019-04-07T05:15:02.706Z,7.20
2019-04-07T05:17:31.196Z,7.20
2019-04-07T05:20:00.194Z,7.30
2019-04-07T05:22:29.105Z,7.30
2019-04-07T05:24:57.616Z,7.30
2019-04-07T05:27:26.076Z,7.30
2019-04-07T05:29:54.589Z,7.40
2019-04-07T05:32:23.295Z,7.40
2019-04-07T05:34:52.106Z,7.40
2019-04-07T05:37:20.667Z,7.50
2019-04-07T05:39:49.104Z,7.50
2019-04-07T05:42:17.577Z,7.50
2019-04-07T05:44:46.085Z,7.50
2019-04-07T05:47:15.509Z,7.50
2019-04-07T05:49:44.579Z,7.60
2019-04-07T05:52:13.974Z,7.60
2019-04-07T05:54:42.868Z,7.70
2019-04-07T05:57:11.830Z,7.80
2019-04-07T05:59:42.302Z,7.80
2019-04-07T06:02:11.097Z,7.90
2019-04-07T06:04:39.541Z,8.00
2019-04-07T06:07:08.088Z,8.10
2019-04-07T06:09:37.213Z,8.10
2019-04-07T06:12:09.086Z,8.20
2019-04-07T06:14:36.775Z,8.40
2019-04-07T06:17:06.414Z,8.40
2019-04-07T06:19:40.547Z,8.50
2019-04-07T06:22:07.514Z,8.60
2019-04-07T06:24:35.909Z,8.70
2019-04-07T06:27:04.557Z,8.70
2019-04-07T06:29:33.397Z,8.80
2019-04-07T06:32:03.698Z,8.80
2019-04-07T06:34:32.630Z,8.90
2019-04-07T06:37:01.250Z,9.00
2019-04-07T06:39:32.014Z,9.10
2019-04-07T06:42:01.380Z,9.20
2019-04-07T06:44:30.109Z,9.30
2019-04-07T06:47:13.156Z,9.40
2019-04-07T06:49:53.166Z,9.50
2019-04-07T06:52:23.853Z,9.60
2019-04-07T06:55:10.167Z,9.70
2019-04-07T06:57:57.127Z,9.80
2019-04-07T07:00:28.030Z,9.80
2019-04-07T07:03:02.350Z,9.90
2019-04-07T07:05:46.164Z,10.00
2019-04-07T07:08:21.062Z,10.10
2019-04-07T07:11:03.072Z,10.20
2019-04-07T07:13:36.785Z,10.30
2019-04-07T07:16:09.607Z,10.40
2019-04-07T07:18:44.734Z,10.50
2019-04-07T07:21:34.008Z,10.60
2019-04-07T07:24:01.401Z,10.70
2019-04-07T07:26:32.818Z,10.80
2019-04-07T07:29:00.871Z,10.90
2019-04-07T07:31:29.442Z,11.00
2019-04-07T07:33:58.277Z,11.10
2019-04-07T07:36:27.285Z,11.20
2019-04-07T07:39:01.257Z,11.30
2019-04-07T07:41:26.009Z,11.50
2019-04-07T07:43:54.836Z,11.50
2019-04-07T07:46:23.829Z,11.60
2019-04-07T07:48:57.062Z,11.70
2019-04-07T07:51:22.534Z,11.90
2019-04-07T07:53:51.719Z,12.00
2019-04-07T07:56:21.320Z,12.10
2019-04-07T07:58:50.473Z,12.10
2019-04-07T08:01:19.441Z,12.30
2019-04-07T08:03:51.720Z,12.40
2019-04-07T08:06:18.469Z,12.60
2019-04-07T08:08:47.812Z,12.80
2019-04-07T08:11:17.700Z,13.00
2019-04-07T08:13:47.008Z,13.20
2019-04-07T08:16:16.295Z,13.40
2019-04-07T08:18:46.418Z,13.50
2019-04-07T08:21:17.646Z,13.70
2019-04-07T08:23:45.477Z,13.80
2019-04-07T08:26:14.553Z,14.10
2019-04-07T08:28:43.918Z,14.30
2019-04-07T08:31:13.200Z,14.40
2019-04-07T08:33:42.150Z,14.50
2019-04-07T08:36:12.970Z,14.60
2019-04-07T08:38:41.157Z,14.60
2019-04-07T08:41:11.339Z,14.60
2019-04-07T08:43:39.925Z,14.80
2019-04-07T08:46:08.854Z,14.90
2019-04-07T08:48:37.523Z,15.10
2019-04-07T08:51:06.868Z,15.30
2019-04-07T08:53:35.500Z,15.40
2019-04-07T08:56:06.729Z,15.50
2019-04-07T08:58:38.455Z,15.70
2019-04-07T09:01:04.281Z,16.00
2019-04-07T09:03:33.192Z,16.20
2019-04-07T09:06:01.850Z,16.30
2019-04-07T09:08:34.693Z,16.50
2019-04-07T09:11:03.207Z,16.70
2019-04-07T09:13:33.892Z,16.90
2019-04-07T09:16:18.567Z,17.10
2019-04-07T09:19:01.112Z,17.20
2019-04-07T09:21:38.682Z,17.50
2019-04-07T09:24:10.092Z,17.60
2019-04-07T09:26:56.560Z,17.70
2019-04-07T09:29:43.171Z,17.80
2019-04-07T09:32:30.200Z,17.80
2019-04-07T09:35:12.607Z,17.90
2019-04-07T09:37:45.378Z,18.00
2019-04-07T09:40:27.917Z,18.10
2019-04-07T09:43:01.300Z,18.20
2019-04-07T09:45:39.372Z,18.30
2019-04-07T09:48:22.924Z,18.40
2019-04-07T09:51:01.124Z,18.50
2019-04-07T09:53:33.925Z,18.50
2019-04-07T09:56:11.888Z,18.50
2019-04-07T09:58:58.133Z,18.50
2019-04-07T10:01:45.032Z,18.70
2019-04-07T10:04:32.121Z,18.90
2019-04-07T10:07:06.763Z,19.10
2019-04-07T10:10:04.536Z,19.30
2019-04-07T10:12:29.989Z,19.50
2019-04-07T10:15:16.681Z,19.60
2019-04-07T10:17:47.085Z,19.70
2019-04-07T10:20:22.061Z,19.70
2019-04-07T10:22:51.575Z,19.70
2019-04-07T10:25:27.720Z,19.80
2019-04-07T10:28:03.105Z,20.00
2019-04-07T10:30:45.967Z,20.10
2019-04-07T10:33:19.131Z,20.00
2019-04-07T10:35:55.172Z,20.00
2019-04-07T10:38:25.829Z,20.10
2019-04-07T10:40:56.662Z,20.20
2019-04-07T10:43:38.256Z,20.40
2019-04-07T10:46:28.293Z,20.50
2019-04-07T10:48:59.114Z,20.60
2019-04-07T10:51:35.481Z,20.70
2019-04-07T10:54:17.522Z,20.90
2019-04-07T10:57:03.274Z,21.00
2019-04-07T10:59:42.573Z,21.20
2019-04-07T11:02:31.438Z,21.50
2019-04-07T11:05:07.371Z,21.70
2019-04-07T11:07:38.056Z,21.80
2019-04-07T11:10:34.579Z,21.90
2019-04-07T11:13:00.757Z,22.00
2019-04-07T11:15:30.878Z,22.10
2019-04-07T11:18:13.639Z,22.30
2019-04-07T11:20:52.893Z,22.50
2019-04-07T11:23:39.249Z,22.60
2019-04-07T11:26:18.169Z,22.60
2019-04-07T11:28:48.951Z,22.60
2019-04-07T11:31:19.680Z,22.30
2019-04-07T11:33:50.313Z,22.10
2019-04-07T11:36:22.428Z,22.10
2019-04-07T11:39:09.910Z,22.20
2019-04-07T11:41:57.389Z,22.50
2019-04-07T11:44:43.932Z,22.70
2019-04-07T11:47:17.460Z,23.10
2019-04-07T11:49:48.435Z,23.30
2019-04-07T11:52:21.354Z,23.40
2019-04-07T11:54:52.132Z,23.30
2019-04-07T11:57:34.342Z,23.10
2019-04-07T12:00:21.069Z,23.00
2019-04-07T12:02:51.931Z,22.90
2019-04-07T12:05:25.590Z,22.90
2019-04-07T12:08:01.758Z,22.80
2019-04-07T12:10:31.914Z,22.90
2019-04-07T12:13:01.945Z,23.00
2019-04-07T12:15:32.350Z,22.90
2019-04-07T12:18:20.079Z,22.80
2019-04-07T12:21:08.752Z,22.60
2019-04-07T12:23:42.005Z,22.30
2019-04-07T12:26:14.643Z,22.20
2019-04-07T12:28:56.973Z,22.10
2019-04-07T12:31:39.193Z,22.40
2019-04-07T12:34:21.233Z,23.10
2019-04-07T12:37:07.835Z,23.70
2019-04-07T12:39:54.374Z,24.30
2019-04-07T12:42:41.679Z,25.40
2019-04-07T12:45:29.897Z,26.60
2019-04-07T12:48:00.181Z,27.50
2019-04-07T12:50:35.996Z,28.30
2019-04-07T12:53:08.605Z,28.20
2019-04-07T12:55:52.012Z,28.10
2019-04-07T12:58:17.007Z,28.40
2019-04-07T13:01:09.883Z,29.20
2019-04-07T13:03:51.601Z,29.80
2019-04-07T13:06:22.249Z,30.20
2019-04-07T13:08:58.630Z,30.70
2019-04-07T13:11:35.629Z,30.10
2019-04-07T13:14:16.548Z,29.20
2019-04-07T13:16:50.359Z,28.10
2019-04-07T13:19:35.581Z,26.80
2019-04-07T13:22:08.381Z,26.30
2019-04-07T13:24:47.880Z,27.20
2019-04-07T13:27:18.917Z,28.10
2019-04-07T13:29:49.757Z,28.40
2019-04-07T13:32:39.289Z,28.50
2019-04-07T13:35:15.629Z,28.20
2019-04-07T13:37:55.529Z,27.40
2019-04-07T13:40:26.260Z,26.80
2019-04-07T13:42:58.063Z,27.20
2019-04-07T13:45:28.982Z,28.70
2019-04-07T13:48:05.898Z,30.50
2019-04-07T13:50:42.521Z,31.70
2019-04-07T13:53:30.640Z,31.00
2019-04-07T13:56:03.485Z,30.00
2019-04-07T13:58:35.693Z,28.70
2019-04-07T14:01:11.578Z,27.60
2019-04-07T14:03:44.625Z,26.70
2019-04-07T14:06:31.132Z,26.10
2019-04-07T14:09:06.871Z,26.20
2019-04-07T14:12:00.104Z,27.80
2019-04-07T14:14:17.921Z,30.00
2019-04-07T14:16:57.422Z,31.20
2019-04-07T14:19:44.472Z,32.40
2019-04-07T14:22:20.857Z,33.10
2019-04-07T14:25:07.968Z,33.70
2019-04-07T14:27:54.801Z,34.50
2019-04-07T14:30:24.926Z,35.20
2019-04-07T14:33:01.153Z,35.90
2019-04-07T14:35:47.786Z,35.60
2019-04-07T14:38:36.679Z,34.20
2019-04-07T14:41:15.978Z,32.40
2019-04-07T14:43:46.360Z,31.00
2019-04-07T14:46:32.737Z,31.50
2019-04-07T14:49:11.472Z,32.80
2019-04-07T14:51:47.143Z,34.20
2019-04-07T14:54:27.025Z,35.10
2019-04-07T14:57:13.649Z,35.70
2019-04-07T14:59:54.562Z,34.70
2019-04-07T15:02:22.812Z,33.00
2019-04-07T15:04:56.925Z,32.00
2019-04-07T15:07:27.939Z,31.00
2019-04-07T15:10:01.070Z,29.70
2019-04-07T15:12:40.373Z,28.60
2019-04-07T15:15:11.784Z,27.70
2019-04-07T15:17:40.379Z,26.80
2019-04-07T15:20:11.629Z,26.30
2019-04-07T15:22:39.350Z,25.90
2019-04-07T15:25:08.980Z,25.60
2019-04-07T15:27:38.371Z,25.20
2019-04-07T15:30:13.273Z,25.10
2019-04-07T15:32:39.548Z,25.40
2019-04-07T15:35:11.816Z,26.70
2019-04-07T15:37:40.466Z,28.00
2019-04-07T15:40:08.990Z,28.80
2019-04-07T15:42:41.840Z,29.40
2019-04-07T15:45:11.259Z,29.90
2019-04-07T15:47:39.047Z,30.50
2019-04-07T15:50:08.505Z,30.40
2019-04-07T15:52:37.378Z,29.60
2019-04-07T15:55:07.295Z,28.90
2019-04-07T15:57:36.160Z,28.50
2019-04-07T16:00:10.025Z,28.70
2019-04-07T16:02:41.222Z,28.90
2019-04-07T16:05:10.526Z,29.30
2019-04-07T16:07:39.183Z,29.00
2019-04-07T16:10:08.276Z,28.20
2019-04-07T16:12:44.820Z,27.30
2019-04-07T16:15:07.961Z,26.50
2019-04-07T16:17:37.174Z,25.70
2019-04-07T16:20:20.649Z,25.00
2019-04-07T16:22:44.203Z,24.40
2019-04-07T16:25:13.052Z,23.90
2019-04-07T16:27:42.360Z,23.50
2019-04-07T16:30:13.844Z,23.10
2019-04-07T16:32:41.985Z,22.90
2019-04-07T16:35:15.549Z,22.70
2019-04-07T16:37:40.894Z,22.50
2019-04-07T16:40:10.809Z,22.30
2019-04-07T16:42:39.896Z,22.30
2019-04-07T16:45:11.935Z,22.20
2019-04-07T16:47:38.968Z,22.20
2019-04-07T16:50:08.678Z,22.10
2019-04-07T16:52:37.258Z,22.10
2019-04-07T16:55:09.421Z,22.00
2019-04-07T16:57:38.718Z,21.90
2019-04-07T17:00:15.278Z,21.80
2019-04-07T17:02:43.920Z,21.70
2019-04-07T17:05:12.375Z,21.70
2019-04-07T17:07:44.285Z,21.60
2019-04-07T17:10:11.913Z,21.40
2019-04-07T17:12:40.805Z,21.40
2019-04-07T17:15:10.416Z,21.30
2019-04-07T17:17:39.954Z,21.20
2019-04-07T17:20:08.919Z,21.10
2019-04-07T17:22:37.446Z,21.10
2019-04-07T17:25:09.490Z,21.00
2019-04-07T17:27:40.952Z,21.00
2019-04-07T17:30:11.151Z,20.90
2019-04-07T17:32:40.336Z,20.80
2019-04-07T17:35:13.596Z,20.70
2019-04-07T17:37:40.697Z,20.70
2019-04-07T17:40:17.853Z,20.60
2019-04-07T17:42:50.796Z,20.60
2019-04-07T17:45:35.395Z,20.40
2019-04-07T17:48:14.654Z,20.30
2019-04-07T17:51:05.874Z,20.20
2019-04-07T17:53:39.069Z,20.10
2019-04-07T17:56:29.841Z,20.00
2019-04-07T17:59:04.432Z,19.90
2019-04-07T18:01:35.682Z,19.80
2019-04-07T18:04:15.550Z,19.70
2019-04-07T18:07:03.622Z,19.50
2019-04-07T18:09:34.157Z,19.40
2019-04-07T18:12:19.821Z,19.30
2019-04-07T18:14:52.110Z,19.20
2019-04-07T18:17:33.618Z,19.00
2019-04-07T18:20:19.391Z,18.90
2019-04-07T18:23:01.808Z,18.80
2019-04-07T18:25:35.261Z,18.70
2019-04-07T18:28:05.568Z,18.60
2019-04-07T18:30:41.896Z,18.40
2019-04-07T18:33:21.780Z,18.40
2019-04-07T18:36:09.261Z,18.30
2019-04-07T18:38:47.002Z,18.30
2019-04-07T18:41:30.790Z,18.20
2019-04-07T18:44:11.964Z,18.20
2019-04-07T18:46:52.342Z,18.10
2019-04-07T18:49:39.435Z,18.10
2019-04-07T18:52:27.526Z,18.00
2019-04-07T18:55:14.841Z,18.00
2019-04-07T18:57:46.109Z,17.90
2019-04-07T19:00:27.555Z,17.80
2019-04-07T19:03:00.300Z,17.70
2019-04-07T19:05:33.385Z,17.70
2019-04-07T19:08:05.288Z,17.60
2019-04-07T19:10:38.881Z,17.50
2019-04-07T19:13:17.555Z,17.50
2019-04-07T19:15:59.813Z,17.40
2019-04-07T19:18:46.562Z,17.30
2019-04-07T19:21:16.606Z,17.20
2019-04-07T19:23:49.332Z,17.20
2019-04-07T19:26:24.960Z,17.10
2019-04-07T19:28:55.993Z,17.00
2019-04-07T19:31:36.247Z,17.00
2019-04-07T19:34:28.529Z,16.90
2019-04-07T19:37:17.962Z,16.80
2019-04-07T19:39:59.249Z,16.80
2019-04-07T19:42:42.857Z,16.70
2019-04-07T19:45:22.798Z,16.60
2019-04-07T19:47:53.666Z,16.50
2019-04-07T19:50:26.561Z,16.40
2019-04-07T19:53:14.703Z,16.30
2019-04-07T19:55:44.898Z,16.10
2019-04-07T19:58:26.966Z,16.00
2019-04-07T20:01:03.400Z,16.00
2019-04-07T20:03:36.885Z,15.90
2019-04-07T20:06:23.047Z,15.90
2019-04-07T20:09:00.127Z,15.80
2019-04-07T20:11:46.722Z,15.70
2019-04-07T20:14:17.421Z,15.60
2019-04-07T20:16:51.517Z,15.50
2019-04-07T20:19:40.202Z,15.40
2019-04-07T20:22:27.121Z,15.40
2019-04-07T20:25:15.886Z,15.30
2019-04-07T20:28:02.308Z,15.10
2019-04-07T20:30:46.993Z,15.10
2019-04-07T20:33:29.761Z,15.00
2019-04-07T20:36:06.639Z,15.00
2019-04-07T20:38:40.170Z,14.90
2019-04-07T20:41:15.510Z,14.80
2019-04-07T20:43:57.048Z,14.70
2019-04-07T20:46:30.010Z,14.60
2019-04-07T20:49:00.471Z,14.40
2019-04-07T20:51:50.599Z,14.40
2019-04-07T20:54:35.770Z,14.30
2019-04-07T20:57:09.248Z,14.30
2019-04-07T20:59:48.362Z,14.30
2019-04-07T21:02:27.453Z,14.20
2019-04-07T21:05:00.460Z,14.20
2019-04-07T21:07:47.080Z,14.10
2019-04-07T21:10:32.766Z,14.10
2019-04-07T21:13:03.450Z,14.10
2019-04-07T21:15:33.785Z,14.00
2019-04-07T21:18:06.602Z,14.00
2019-04-07T21:20:38.485Z,13.90
2019-04-07T21:23:09.224Z,13.80
2019-04-07T21:25:48.972Z,13.80
2019-04-07T21:28:38.082Z,13.70
2019-04-07T21:31:17.527Z,13.70
2019-04-07T21:33:55.906Z,13.60
2019-04-07T21:36:32.847Z,13.50
2019-04-07T21:39:20.499Z,13.50
2019-04-07T21:42:05.078Z,13.60
2019-04-07T21:44:38.587Z,13.50
2019-04-07T21:47:12.000Z,13.50
2019-04-07T21:49:51.554Z,13.40
2019-04-07T21:52:24.174Z,13.40
2019-04-07T21:54:56.485Z,13.30
2019-04-07T21:57:26.760Z,13.30
2019-04-07T21:59:59.021Z,13.20
2019-04-07T22:02:43.213Z,13.30
2019-04-07T22:05:13.517Z,13.30
2019-04-07T22:07:51.418Z,13.20
2019-04-07T22:10:21.507Z,13.20
2019-04-07T22:12:49.997Z,13.20
2019-04-07T22:15:19.222Z,13.20
2019-04-07T22:17:47.932Z,13.20
2019-04-07T22:20:18.738Z,13.20
2019-04-07T22:22:47.230Z,13.20
2019-04-07T22:25:18.965Z,13.20
2019-04-07T22:27:48.339Z,13.30
2019-04-07T22:30:17.103Z,13.30
2019-04-07T22:32:45.538Z,13.30
2019-04-07T22:35:14.762Z,13.30
2019-04-07T22:37:44.052Z,13.30
2019-04-07T22:40:15.942Z,13.40
2019-04-07T22:42:45.893Z,13.40
2019-04-07T22:45:14.979Z,13.30
2019-04-07T22:47:43.449Z,13.30
2019-04-07T22:50:12.824Z,13.20
2019-04-07T22:52:41.833Z,13.20
2019-04-07T22:55:10.508Z,13.20
2019-04-07T22:57:38.939Z,13.20
2019-04-07T23:00:10.817Z,13.20
2019-04-07T23:02:40.221Z,13.10
2019-04-07T23:05:09.272Z,13.10
2019-04-07T23:07:37.889Z,13.00
2019-04-07T23:10:06.908Z,13.00
2019-04-07T23:12:36.083Z,13.00
2019-04-07T23:15:07.020Z,13.00
2019-04-07T23:17:36.219Z,12.90
2019-04-07T23:20:07.864Z,12.80
2019-04-07T23:22:36.539Z,12.80
2019-04-07T23:25:06.181Z,12.80
2019-04-07T23:27:34.797Z,12.70
2019-04-07T23:30:04.264Z,12.70
2019-04-07T23:32:33.009Z,12.60
2019-04-07T23:35:01.781Z,12.60
2019-04-07T23:37:30.638Z,12.50
2019-04-07T23:39:59.131Z,12.50
2019-04-07T23:42:28.547Z,12.50
2019-04-07T23:44:56.960Z,12.40
2019-04-07T23:47:25.377Z,12.30
2019-04-07T23:49:54.420Z,12.30
2019-04-07T23:52:23.235Z,12.30
2019-04-07T23:54:52.447Z,12.30
2019-04-07T23:57:21.852Z,12.30
2019-04-07T23:59:50.674Z,12.30
